sensor_id;sensor_type;location;lat;lon;timestamp;P1;durP1;ratioP1;P2;durP2;ratioP2
9461;SDS011;4769;42.660;23.262;2023-01-26T00:02:25;9.17;;;6.30;;
9461;SDS011;4769;42.660;23.262;2023-01-26T00:04:53;8.20;;;6.27;;
9461;SDS011;4769;42.660;23.262;2023-01-26T00:07:19;8.77;;;6.33;;
9461;SDS011;4769;42.660;23.262;2023-01-26T00:09:46;8.23;;;5.97;;
9461;SDS011;4769;42.660;23.262;2023-01-26T00:12:13;8.00;;;6.60;;
9461;SDS011;4769;42.660;23.262;2023-01-26T00:14:39;8.17;;;6.37;;
9461;SDS011;4769;42.660;23.262;2023-01-26T00:17:16;7.80;;;6.20;;
9461;SDS011;4769;42.660;23.262;2023-01-26T00:19:50;8.60;;;6.40;;
9461;SDS011;4769;42.660;23.262;2023-01-26T00:22:23;7.30;;;6.13;;
9461;SDS011;4769;42.660;23.262;2023-01-26T00:24:50;9.27;;;6.10;;
9461;SDS011;4769;42.660;23.262;2023-01-26T00:27:17;8.77;;;6.43;;
9461;SDS011;4769;42.660;23.262;2023-01-26T00:29:43;8.80;;;6.23;;
9461;SDS011;4769;42.660;23.262;2023-01-26T00:32:10;9.27;;;6.73;;
9461;SDS011;4769;42.660;23.262;2023-01-26T00:34:37;10.57;;;6.63;;
9461;SDS011;4769;42.660;23.262;2023-01-26T00:37:05;8.47;;;6.47;;
9461;SDS011;4769;42.660;23.262;2023-01-26T00:39:32;8.13;;;6.00;;
9461;SDS011;4769;42.660;23.262;2023-01-26T00:41:58;10.73;;;6.43;;
9461;SDS011;4769;42.660;23.262;2023-01-26T00:44:38;9.10;;;5.97;;
9461;SDS011;4769;42.660;23.262;2023-01-26T00:47:07;7.87;;;6.23;;
9461;SDS011;4769;42.660;23.262;2023-01-26T00:49:36;9.30;;;6.60;;
9461;SDS011;4769;42.660;23.262;2023-01-26T00:52:03;10.17;;;6.90;;
9461;SDS011;4769;42.660;23.262;2023-01-26T00:54:31;9.33;;;7.37;;
9461;SDS011;4769;42.660;23.262;2023-01-26T00:56:58;8.60;;;6.80;;
9461;SDS011;4769;42.660;23.262;2023-01-26T00:59:25;8.33;;;6.60;;
9461;SDS011;4769;42.660;23.262;2023-01-26T01:01:52;8.33;;;6.70;;
9461;SDS011;4769;42.660;23.262;2023-01-26T01:04:18;7.70;;;6.37;;
9461;SDS011;4769;42.660;23.262;2023-01-26T01:06:45;10.00;;;7.00;;
9461;SDS011;4769;42.660;23.262;2023-01-26T01:09:13;8.27;;;6.60;;
9461;SDS011;4769;42.660;23.262;2023-01-26T01:11:40;10.70;;;7.07;;
9461;SDS011;4769;42.660;23.262;2023-01-26T01:14:08;10.73;;;7.40;;
9461;SDS011;4769;42.660;23.262;2023-01-26T01:16:34;7.80;;;6.23;;
9461;SDS011;4769;42.660;23.262;2023-01-26T01:19:01;10.93;;;7.30;;
9461;SDS011;4769;42.660;23.262;2023-01-26T01:21:28;9.23;;;7.67;;
9461;SDS011;4769;42.660;23.262;2023-01-26T01:23:56;9.83;;;7.43;;
9461;SDS011;4769;42.660;23.262;2023-01-26T01:26:24;8.70;;;6.50;;
9461;SDS011;4769;42.660;23.262;2023-01-26T01:28:52;9.20;;;6.77;;
9461;SDS011;4769;42.660;23.262;2023-01-26T01:31:19;10.00;;;7.27;;
9461;SDS011;4769;42.660;23.262;2023-01-26T01:33:46;7.63;;;6.17;;
9461;SDS011;4769;42.660;23.262;2023-01-26T01:36:13;11.10;;;7.30;;
9461;SDS011;4769;42.660;23.262;2023-01-26T01:38:42;8.43;;;6.30;;
9461;SDS011;4769;42.660;23.262;2023-01-26T01:41:10;10.03;;;6.17;;
9461;SDS011;4769;42.660;23.262;2023-01-26T01:43:39;7.97;;;6.53;;
9461;SDS011;4769;42.660;23.262;2023-01-26T01:46:09;7.17;;;5.80;;
9461;SDS011;4769;42.660;23.262;2023-01-26T01:48:42;8.87;;;6.13;;
9461;SDS011;4769;42.660;23.262;2023-01-26T01:51:16;8.47;;;6.03;;
9461;SDS011;4769;42.660;23.262;2023-01-26T01:53:47;8.67;;;6.23;;
9461;SDS011;4769;42.660;23.262;2023-01-26T01:56:17;8.10;;;6.43;;
9461;SDS011;4769;42.660;23.262;2023-01-26T01:58:50;8.43;;;5.90;;
9461;SDS011;4769;42.660;23.262;2023-01-26T02:01:19;7.60;;;5.77;;
9461;SDS011;4769;42.660;23.262;2023-01-26T02:03:46;10.53;;;5.67;;
9461;SDS011;4769;42.660;23.262;2023-01-26T02:06:18;9.17;;;6.33;;
9461;SDS011;4769;42.660;23.262;2023-01-26T02:08:49;7.60;;;6.60;;
9461;SDS011;4769;42.660;23.262;2023-01-26T02:11:18;8.20;;;6.23;;
9461;SDS011;4769;42.660;23.262;2023-01-26T02:13:49;9.67;;;5.57;;
9461;SDS011;4769;42.660;23.262;2023-01-26T02:16:17;6.87;;;5.67;;
9461;SDS011;4769;42.660;23.262;2023-01-26T02:18:45;6.20;;;5.10;;
9461;SDS011;4769;42.660;23.262;2023-01-26T02:21:13;8.57;;;5.80;;
9461;SDS011;4769;42.660;23.262;2023-01-26T02:23:48;8.03;;;5.47;;
9461;SDS011;4769;42.660;23.262;2023-01-26T02:26:23;6.57;;;5.67;;
9461;SDS011;4769;42.660;23.262;2023-01-26T02:28:52;8.50;;;5.47;;
9461;SDS011;4769;42.660;23.262;2023-01-26T02:31:19;7.43;;;5.40;;
9461;SDS011;4769;42.660;23.262;2023-01-26T02:33:48;7.70;;;5.57;;
9461;SDS011;4769;42.660;23.262;2023-01-26T02:36:16;8.13;;;5.63;;
9461;SDS011;4769;42.660;23.262;2023-01-26T02:38:47;7.87;;;5.87;;
9461;SDS011;4769;42.660;23.262;2023-01-26T02:41:18;7.73;;;5.90;;
9461;SDS011;4769;42.660;23.262;2023-01-26T02:44:00;7.70;;;6.00;;
9461;SDS011;4769;42.660;23.262;2023-01-26T02:46:29;8.53;;;5.63;;
9461;SDS011;4769;42.660;23.262;2023-01-26T02:48:56;9.07;;;5.60;;
9461;SDS011;4769;42.660;23.262;2023-01-26T02:51:36;7.57;;;5.30;;
9461;SDS011;4769;42.660;23.262;2023-01-26T02:54:03;7.37;;;5.50;;
9461;SDS011;4769;42.660;23.262;2023-01-26T02:56:30;6.13;;;4.73;;
9461;SDS011;4769;42.660;23.262;2023-01-26T02:58:56;7.00;;;5.33;;
9461;SDS011;4769;42.660;23.262;2023-01-26T03:01:24;11.27;;;6.50;;
9461;SDS011;4769;42.660;23.262;2023-01-26T03:03:50;8.27;;;6.00;;
9461;SDS011;4769;42.660;23.262;2023-01-26T03:06:17;8.13;;;6.10;;
9461;SDS011;4769;42.660;23.262;2023-01-26T03:08:44;8.53;;;5.93;;
9461;SDS011;4769;42.660;23.262;2023-01-26T03:11:11;7.33;;;5.53;;
9461;SDS011;4769;42.660;23.262;2023-01-26T03:13:38;8.70;;;5.60;;
9461;SDS011;4769;42.660;23.262;2023-01-26T03:16:05;6.50;;;5.27;;
9461;SDS011;4769;42.660;23.262;2023-01-26T03:18:35;8.37;;;5.53;;
9461;SDS011;4769;42.660;23.262;2023-01-26T03:21:20;8.10;;;5.53;;
9461;SDS011;4769;42.660;23.262;2023-01-26T03:24:04;5.83;;;4.70;;
9461;SDS011;4769;42.660;23.262;2023-01-26T03:26:48;7.10;;;5.50;;
9461;SDS011;4769;42.660;23.262;2023-01-26T03:29:32;7.20;;;4.47;;
9461;SDS011;4769;42.660;23.262;2023-01-26T03:31:59;6.87;;;5.30;;
9461;SDS011;4769;42.660;23.262;2023-01-26T03:34:27;5.77;;;4.77;;
9461;SDS011;4769;42.660;23.262;2023-01-26T03:36:54;8.10;;;5.23;;
9461;SDS011;4769;42.660;23.262;2023-01-26T03:39:21;8.20;;;5.20;;
9461;SDS011;4769;42.660;23.262;2023-01-26T03:42:05;7.53;;;5.23;;
9461;SDS011;4769;42.660;23.262;2023-01-26T03:44:49;5.83;;;4.70;;
9461;SDS011;4769;42.660;23.262;2023-01-26T03:47:34;6.27;;;4.70;;
9461;SDS011;4769;42.660;23.262;2023-01-26T03:50:20;6.07;;;4.63;;
9461;SDS011;4769;42.660;23.262;2023-01-26T03:53:11;6.77;;;5.13;;
9461;SDS011;4769;42.660;23.262;2023-01-26T03:55:56;6.63;;;4.50;;
9461;SDS011;4769;42.660;23.262;2023-01-26T03:58:40;6.63;;;5.13;;
9461;SDS011;4769;42.660;23.262;2023-01-26T04:01:07;7.87;;;5.07;;
9461;SDS011;4769;42.660;23.262;2023-01-26T04:03:35;5.47;;;4.47;;
9461;SDS011;4769;42.660;23.262;2023-01-26T04:06:20;7.27;;;5.20;;
9461;SDS011;4769;42.660;23.262;2023-01-26T04:09:04;8.20;;;5.43;;
9461;SDS011;4769;42.660;23.262;2023-01-26T04:11:31;6.83;;;4.90;;
9461;SDS011;4769;42.660;23.262;2023-01-26T04:13:57;6.13;;;5.13;;
9461;SDS011;4769;42.660;23.262;2023-01-26T04:16:41;8.80;;;5.60;;
9461;SDS011;4769;42.660;23.262;2023-01-26T04:19:25;6.67;;;5.27;;
9461;SDS011;4769;42.660;23.262;2023-01-26T04:22:10;6.83;;;5.43;;
9461;SDS011;4769;42.660;23.262;2023-01-26T04:24:39;5.87;;;4.73;;
9461;SDS011;4769;42.660;23.262;2023-01-26T04:27:05;6.53;;;5.10;;
9461;SDS011;4769;42.660;23.262;2023-01-26T04:29:32;6.80;;;5.13;;
9461;SDS011;4769;42.660;23.262;2023-01-26T04:31:59;8.80;;;5.33;;
9461;SDS011;4769;42.660;23.262;2023-01-26T04:34:26;6.50;;;4.40;;
9461;SDS011;4769;42.660;23.262;2023-01-26T04:36:53;5.40;;;4.83;;
9461;SDS011;4769;42.660;23.262;2023-01-26T04:39:21;6.43;;;4.87;;
9461;SDS011;4769;42.660;23.262;2023-01-26T04:41:47;6.10;;;5.10;;
9461;SDS011;4769;42.660;23.262;2023-01-26T04:44:14;5.83;;;4.77;;
9461;SDS011;4769;42.660;23.262;2023-01-26T04:46:42;6.50;;;5.17;;
9461;SDS011;4769;42.660;23.262;2023-01-26T04:49:10;7.07;;;4.90;;
9461;SDS011;4769;42.660;23.262;2023-01-26T04:51:36;4.67;;;4.13;;
9461;SDS011;4769;42.660;23.262;2023-01-26T04:54:03;6.40;;;4.77;;
9461;SDS011;4769;42.660;23.262;2023-01-26T04:56:32;6.67;;;5.13;;
9461;SDS011;4769;42.660;23.262;2023-01-26T04:59:00;5.80;;;4.77;;
9461;SDS011;4769;42.660;23.262;2023-01-26T05:01:29;6.67;;;4.77;;
9461;SDS011;4769;42.660;23.262;2023-01-26T05:03:57;6.87;;;5.47;;
9461;SDS011;4769;42.660;23.262;2023-01-26T05:06:24;8.93;;;5.00;;
9461;SDS011;4769;42.660;23.262;2023-01-26T05:08:51;6.33;;;4.30;;
9461;SDS011;4769;42.660;23.262;2023-01-26T05:11:18;5.80;;;4.90;;
9461;SDS011;4769;42.660;23.262;2023-01-26T05:13:46;4.80;;;4.30;;
9461;SDS011;4769;42.660;23.262;2023-01-26T05:16:14;6.40;;;4.80;;
9461;SDS011;4769;42.660;23.262;2023-01-26T05:18:41;6.83;;;5.00;;
9461;SDS011;4769;42.660;23.262;2023-01-26T05:21:08;7.10;;;5.13;;
9461;SDS011;4769;42.660;23.262;2023-01-26T05:23:37;7.07;;;4.70;;
9461;SDS011;4769;42.660;23.262;2023-01-26T05:26:04;5.17;;;4.10;;
9461;SDS011;4769;42.660;23.262;2023-01-26T05:28:32;6.13;;;4.87;;
9461;SDS011;4769;42.660;23.262;2023-01-26T05:31:01;5.97;;;5.17;;
9461;SDS011;4769;42.660;23.262;2023-01-26T05:33:28;6.90;;;5.07;;
9461;SDS011;4769;42.660;23.262;2023-01-26T05:35:55;5.53;;;4.60;;
9461;SDS011;4769;42.660;23.262;2023-01-26T05:38:22;9.03;;;5.30;;
9461;SDS011;4769;42.660;23.262;2023-01-26T05:40:50;7.97;;;4.67;;
9461;SDS011;4769;42.660;23.262;2023-01-26T05:43:17;7.53;;;5.47;;
9461;SDS011;4769;42.660;23.262;2023-01-26T05:45:44;9.10;;;5.57;;
9461;SDS011;4769;42.660;23.262;2023-01-26T05:48:12;12.93;;;6.03;;
9461;SDS011;4769;42.660;23.262;2023-01-26T05:50:39;10.53;;;6.57;;
9461;SDS011;4769;42.660;23.262;2023-01-26T05:53:05;10.67;;;6.57;;
9461;SDS011;4769;42.660;23.262;2023-01-26T05:55:32;11.90;;;7.10;;
9461;SDS011;4769;42.660;23.262;2023-01-26T05:57:59;10.73;;;6.93;;
9461;SDS011;4769;42.660;23.262;2023-01-26T06:00:26;12.07;;;7.80;;
9461;SDS011;4769;42.660;23.262;2023-01-26T06:02:52;12.63;;;8.57;;
9461;SDS011;4769;42.660;23.262;2023-01-26T06:05:21;11.63;;;7.80;;
9461;SDS011;4769;42.660;23.262;2023-01-26T06:07:47;9.10;;;6.73;;
9461;SDS011;4769;42.660;23.262;2023-01-26T06:10:14;13.53;;;8.03;;
9461;SDS011;4769;42.660;23.262;2023-01-26T06:12:41;11.67;;;8.47;;
9461;SDS011;4769;42.660;23.262;2023-01-26T06:15:09;16.57;;;7.90;;
9461;SDS011;4769;42.660;23.262;2023-01-26T06:17:37;14.83;;;8.30;;
9461;SDS011;4769;42.660;23.262;2023-01-26T06:20:04;13.23;;;8.03;;
9461;SDS011;4769;42.660;23.262;2023-01-26T06:22:33;11.53;;;8.20;;
9461;SDS011;4769;42.660;23.262;2023-01-26T06:25:00;11.47;;;7.33;;
9461;SDS011;4769;42.660;23.262;2023-01-26T06:27:27;11.67;;;7.83;;
9461;SDS011;4769;42.660;23.262;2023-01-26T06:29:53;11.93;;;7.70;;
9461;SDS011;4769;42.660;23.262;2023-01-26T06:32:20;10.07;;;8.13;;
9461;SDS011;4769;42.660;23.262;2023-01-26T06:34:47;9.63;;;7.63;;
9461;SDS011;4769;42.660;23.262;2023-01-26T06:37:14;11.90;;;8.40;;
9461;SDS011;4769;42.660;23.262;2023-01-26T06:39:42;11.60;;;7.90;;
9461;SDS011;4769;42.660;23.262;2023-01-26T06:42:09;10.67;;;8.30;;
9461;SDS011;4769;42.660;23.262;2023-01-26T06:44:37;15.70;;;9.20;;
9461;SDS011;4769;42.660;23.262;2023-01-26T06:47:04;12.40;;;8.10;;
9461;SDS011;4769;42.660;23.262;2023-01-26T06:49:31;14.63;;;9.10;;
9461;SDS011;4769;42.660;23.262;2023-01-26T06:51:58;11.83;;;7.20;;
9461;SDS011;4769;42.660;23.262;2023-01-26T06:54:29;11.20;;;7.37;;
9461;SDS011;4769;42.660;23.262;2023-01-26T06:56:57;11.20;;;7.17;;
9461;SDS011;4769;42.660;23.262;2023-01-26T06:59:25;13.40;;;8.60;;
9461;SDS011;4769;42.660;23.262;2023-01-26T07:01:52;9.53;;;7.47;;
9461;SDS011;4769;42.660;23.262;2023-01-26T07:04:18;10.77;;;7.83;;
9461;SDS011;4769;42.660;23.262;2023-01-26T07:06:45;13.27;;;8.20;;
9461;SDS011;4769;42.660;23.262;2023-01-26T07:09:12;11.00;;;8.23;;
9461;SDS011;4769;42.660;23.262;2023-01-26T07:11:39;16.43;;;10.70;;
9461;SDS011;4769;42.660;23.262;2023-01-26T07:14:07;15.13;;;9.03;;
9461;SDS011;4769;42.660;23.262;2023-01-26T07:16:34;15.47;;;10.47;;
9461;SDS011;4769;42.660;23.262;2023-01-26T07:19:01;16.33;;;10.73;;
9461;SDS011;4769;42.660;23.262;2023-01-26T07:21:28;14.40;;;8.97;;
9461;SDS011;4769;42.660;23.262;2023-01-26T07:23:55;13.17;;;10.30;;
9461;SDS011;4769;42.660;23.262;2023-01-26T07:26:22;21.70;;;10.70;;
9461;SDS011;4769;42.660;23.262;2023-01-26T07:28:49;15.47;;;10.67;;
9461;SDS011;4769;42.660;23.262;2023-01-26T07:31:17;15.43;;;10.63;;
9461;SDS011;4769;42.660;23.262;2023-01-26T07:33:44;14.73;;;8.83;;
9461;SDS011;4769;42.660;23.262;2023-01-26T07:36:10;14.67;;;9.97;;
9461;SDS011;4769;42.660;23.262;2023-01-26T07:38:37;11.57;;;8.80;;
9461;SDS011;4769;42.660;23.262;2023-01-26T07:41:05;14.97;;;8.80;;
9461;SDS011;4769;42.660;23.262;2023-01-26T07:43:34;18.97;;;8.70;;
9461;SDS011;4769;42.660;23.262;2023-01-26T07:46:01;15.93;;;8.03;;
9461;SDS011;4769;42.660;23.262;2023-01-26T07:48:30;11.07;;;7.43;;
9461;SDS011;4769;42.660;23.262;2023-01-26T07:50:58;10.27;;;7.70;;
9461;SDS011;4769;42.660;23.262;2023-01-26T07:53:26;12.93;;;8.53;;
9461;SDS011;4769;42.660;23.262;2023-01-26T07:55:55;17.43;;;9.37;;
9461;SDS011;4769;42.660;23.262;2023-01-26T07:58:31;10.37;;;6.80;;
9461;SDS011;4769;42.660;23.262;2023-01-26T08:01:03;11.23;;;7.13;;
9461;SDS011;4769;42.660;23.262;2023-01-26T08:03:32;9.77;;;6.13;;
9461;SDS011;4769;42.660;23.262;2023-01-26T08:05:59;10.63;;;6.00;;
9461;SDS011;4769;42.660;23.262;2023-01-26T08:08:26;10.47;;;6.53;;
9461;SDS011;4769;42.660;23.262;2023-01-26T08:10:54;9.33;;;7.03;;
9461;SDS011;4769;42.660;23.262;2023-01-26T08:13:24;9.60;;;7.10;;
9461;SDS011;4769;42.660;23.262;2023-01-26T08:15:51;10.77;;;7.30;;
9461;SDS011;4769;42.660;23.262;2023-01-26T08:18:18;16.33;;;7.40;;
9461;SDS011;4769;42.660;23.262;2023-01-26T08:20:50;12.13;;;7.30;;
9461;SDS011;4769;42.660;23.262;2023-01-26T08:23:18;13.00;;;8.27;;
9461;SDS011;4769;42.660;23.262;2023-01-26T08:25:45;14.07;;;8.23;;
9461;SDS011;4769;42.660;23.262;2023-01-26T08:28:12;12.93;;;8.03;;
9461;SDS011;4769;42.660;23.262;2023-01-26T08:30:39;15.17;;;8.30;;
9461;SDS011;4769;42.660;23.262;2023-01-26T08:33:06;9.80;;;6.43;;
9461;SDS011;4769;42.660;23.262;2023-01-26T08:35:33;10.37;;;6.43;;
9461;SDS011;4769;42.660;23.262;2023-01-26T08:38:01;8.20;;;6.63;;
9461;SDS011;4769;42.660;23.262;2023-01-26T08:40:28;9.70;;;6.47;;
9461;SDS011;4769;42.660;23.262;2023-01-26T08:42:56;9.37;;;6.37;;
9461;SDS011;4769;42.660;23.262;2023-01-26T08:45:26;10.83;;;7.17;;
9461;SDS011;4769;42.660;23.262;2023-01-26T08:47:53;16.10;;;6.83;;
9461;SDS011;4769;42.660;23.262;2023-01-26T08:50:21;5.80;;;4.90;;
9461;SDS011;4769;42.660;23.262;2023-01-26T08:52:48;11.37;;;7.43;;
9461;SDS011;4769;42.660;23.262;2023-01-26T08:55:16;9.47;;;6.07;;
9461;SDS011;4769;42.660;23.262;2023-01-26T08:57:43;12.20;;;7.13;;
9461;SDS011;4769;42.660;23.262;2023-01-26T09:00:11;10.17;;;7.27;;
9461;SDS011;4769;42.660;23.262;2023-01-26T09:02:39;8.87;;;6.10;;
9461;SDS011;4769;42.660;23.262;2023-01-26T09:05:06;8.37;;;6.13;;
9461;SDS011;4769;42.660;23.262;2023-01-26T09:07:34;8.03;;;5.37;;
9461;SDS011;4769;42.660;23.262;2023-01-26T09:10:01;9.97;;;6.23;;
9461;SDS011;4769;42.660;23.262;2023-01-26T09:12:29;7.13;;;5.13;;
9461;SDS011;4769;42.660;23.262;2023-01-26T09:14:56;5.77;;;4.90;;
9461;SDS011;4769;42.660;23.262;2023-01-26T09:17:23;6.87;;;5.40;;
9461;SDS011;4769;42.660;23.262;2023-01-26T09:19:50;10.47;;;6.00;;
9461;SDS011;4769;42.660;23.262;2023-01-26T09:22:16;10.27;;;5.50;;
9461;SDS011;4769;42.660;23.262;2023-01-26T09:24:43;8.47;;;4.60;;
9461;SDS011;4769;42.660;23.262;2023-01-26T09:27:10;9.37;;;6.20;;
9461;SDS011;4769;42.660;23.262;2023-01-26T09:29:38;8.87;;;6.20;;
9461;SDS011;4769;42.660;23.262;2023-01-26T09:32:05;8.27;;;4.70;;
9461;SDS011;4769;42.660;23.262;2023-01-26T09:34:32;5.73;;;5.07;;
9461;SDS011;4769;42.660;23.262;2023-01-26T09:36:59;6.60;;;5.07;;
9461;SDS011;4769;42.660;23.262;2023-01-26T09:39:25;5.97;;;4.57;;
9461;SDS011;4769;42.660;23.262;2023-01-26T09:42:00;8.53;;;4.70;;
9461;SDS011;4769;42.660;23.262;2023-01-26T09:44:36;8.30;;;5.80;;
9461;SDS011;4769;42.660;23.262;2023-01-26T09:47:20;8.77;;;5.23;;
9461;SDS011;4769;42.660;23.262;2023-01-26T09:49:56;6.63;;;5.03;;
9461;SDS011;4769;42.660;23.262;2023-01-26T09:52:28;7.67;;;5.87;;
9461;SDS011;4769;42.660;23.262;2023-01-26T09:54:59;7.83;;;6.00;;
9461;SDS011;4769;42.660;23.262;2023-01-26T09:57:31;17.90;;;9.27;;
9461;SDS011;4769;42.660;23.262;2023-01-26T10:00:05;10.87;;;8.00;;
9461;SDS011;4769;42.660;23.262;2023-01-26T10:02:41;9.93;;;5.73;;
9461;SDS011;4769;42.660;23.262;2023-01-26T10:05:17;8.30;;;5.70;;
9461;SDS011;4769;42.660;23.262;2023-01-26T10:07:52;8.87;;;5.20;;
9461;SDS011;4769;42.660;23.262;2023-01-26T10:10:29;7.90;;;5.13;;
9461;SDS011;4769;42.660;23.262;2023-01-26T10:13:00;8.33;;;5.30;;
9461;SDS011;4769;42.660;23.262;2023-01-26T10:15:30;24.63;;;6.53;;
9461;SDS011;4769;42.660;23.262;2023-01-26T10:18:04;8.33;;;5.30;;
9461;SDS011;4769;42.660;23.262;2023-01-26T10:20:33;10.00;;;5.97;;
9461;SDS011;4769;42.660;23.262;2023-01-26T10:23:03;9.00;;;5.53;;
9461;SDS011;4769;42.660;23.262;2023-01-26T10:25:36;7.17;;;5.00;;
9461;SDS011;4769;42.660;23.262;2023-01-26T10:28:10;10.00;;;5.47;;
9461;SDS011;4769;42.660;23.262;2023-01-26T10:30:41;5.63;;;4.50;;
9461;SDS011;4769;42.660;23.262;2023-01-26T10:33:11;6.60;;;5.60;;
9461;SDS011;4769;42.660;23.262;2023-01-26T10:35:41;8.77;;;5.57;;
9461;SDS011;4769;42.660;23.262;2023-01-26T10:41:20;6.90;;;4.93;;
9461;SDS011;4769;42.660;23.262;2023-01-26T10:43:50;5.97;;;4.30;;
9461;SDS011;4769;42.660;23.262;2023-01-26T10:46:25;7.73;;;5.10;;
9461;SDS011;4769;42.660;23.262;2023-01-26T10:48:56;8.23;;;4.47;;
9461;SDS011;4769;42.660;23.262;2023-01-26T10:51:25;5.33;;;4.07;;
9461;SDS011;4769;42.660;23.262;2023-01-26T10:54:14;4.83;;;4.07;;
9461;SDS011;4769;42.660;23.262;2023-01-26T10:56:45;8.53;;;4.77;;
9461;SDS011;4769;42.660;23.262;2023-01-26T10:59:14;9.93;;;5.53;;
9461;SDS011;4769;42.660;23.262;2023-01-26T11:02:00;6.13;;;4.77;;
9461;SDS011;4769;42.660;23.262;2023-01-26T11:04:47;10.43;;;4.47;;
9461;SDS011;4769;42.660;23.262;2023-01-26T11:07:30;7.43;;;5.83;;
9461;SDS011;4769;42.660;23.262;2023-01-26T11:10:11;6.90;;;4.40;;
9461;SDS011;4769;42.660;23.262;2023-01-26T11:12:43;8.23;;;5.10;;
9461;SDS011;4769;42.660;23.262;2023-01-26T11:15:14;5.10;;;4.37;;
9461;SDS011;4769;42.660;23.262;2023-01-26T11:17:46;11.20;;;4.77;;
9461;SDS011;4769;42.660;23.262;2023-01-26T11:20:27;7.73;;;5.57;;
9461;SDS011;4769;42.660;23.262;2023-01-26T11:23:16;5.97;;;4.33;;
9461;SDS011;4769;42.660;23.262;2023-01-26T11:26:00;6.63;;;5.03;;
9461;SDS011;4769;42.660;23.262;2023-01-26T11:28:51;10.50;;;6.90;;
9461;SDS011;4769;42.660;23.262;2023-01-26T11:31:30;5.77;;;4.17;;
9461;SDS011;4769;42.660;23.262;2023-01-26T11:34:07;8.40;;;4.67;;
9461;SDS011;4769;42.660;23.262;2023-01-26T11:36:47;7.57;;;4.50;;
9461;SDS011;4769;42.660;23.262;2023-01-26T11:39:24;5.70;;;4.40;;
9461;SDS011;4769;42.660;23.262;2023-01-26T11:42:06;4.43;;;3.87;;
9461;SDS011;4769;42.660;23.262;2023-01-26T11:44:45;8.63;;;5.30;;
9461;SDS011;4769;42.660;23.262;2023-01-26T11:50:25;8.53;;;5.13;;
9461;SDS011;4769;42.660;23.262;2023-01-26T11:53:02;7.07;;;5.27;;
9461;SDS011;4769;42.660;23.262;2023-01-26T11:55:47;11.40;;;6.77;;
9461;SDS011;4769;42.660;23.262;2023-01-26T11:58:29;7.00;;;4.40;;
9461;SDS011;4769;42.660;23.262;2023-01-26T12:01:01;10.03;;;6.23;;
9461;SDS011;4769;42.660;23.262;2023-01-26T12:03:33;5.97;;;4.47;;
9461;SDS011;4769;42.660;23.262;2023-01-26T12:06:15;6.83;;;5.43;;
9461;SDS011;4769;42.660;23.262;2023-01-26T12:08:44;7.77;;;5.90;;
9461;SDS011;4769;42.660;23.262;2023-01-26T12:11:18;11.63;;;6.27;;
9461;SDS011;4769;42.660;23.262;2023-01-26T12:16:48;6.60;;;5.07;;
9461;SDS011;4769;42.660;23.262;2023-01-26T12:19:31;6.90;;;5.67;;
9461;SDS011;4769;42.660;23.262;2023-01-26T12:22:10;7.57;;;5.87;;
9461;SDS011;4769;42.660;23.262;2023-01-26T12:24:44;7.90;;;6.00;;
9461;SDS011;4769;42.660;23.262;2023-01-26T12:27:20;8.33;;;5.63;;
9461;SDS011;4769;42.660;23.262;2023-01-26T12:29:54;7.70;;;5.83;;
9461;SDS011;4769;42.660;23.262;2023-01-26T12:32:26;8.60;;;6.63;;
9461;SDS011;4769;42.660;23.262;2023-01-26T12:34:53;8.03;;;6.20;;
9461;SDS011;4769;42.660;23.262;2023-01-26T12:37:25;8.30;;;5.80;;
9461;SDS011;4769;42.660;23.262;2023-01-26T12:40:05;7.67;;;6.40;;
9461;SDS011;4769;42.660;23.262;2023-01-26T12:42:43;8.10;;;5.70;;
9461;SDS011;4769;42.660;23.262;2023-01-26T12:45:14;10.13;;;6.10;;
9461;SDS011;4769;42.660;23.262;2023-01-26T12:47:46;7.93;;;6.30;;
9461;SDS011;4769;42.660;23.262;2023-01-26T12:50:19;6.80;;;5.80;;
9461;SDS011;4769;42.660;23.262;2023-01-26T12:52:53;8.80;;;6.17;;
9461;SDS011;4769;42.660;23.262;2023-01-26T12:55:25;9.70;;;6.73;;
9461;SDS011;4769;42.660;23.262;2023-01-26T12:57:57;8.87;;;6.57;;
9461;SDS011;4769;42.660;23.262;2023-01-26T13:00:28;12.67;;;6.63;;
9461;SDS011;4769;42.660;23.262;2023-01-26T13:02:58;9.27;;;6.20;;
9461;SDS011;4769;42.660;23.262;2023-01-26T13:05:29;8.17;;;6.70;;
9461;SDS011;4769;42.660;23.262;2023-01-26T13:08:00;9.43;;;6.63;;
9461;SDS011;4769;42.660;23.262;2023-01-26T13:11:14;13.53;;;7.07;;
9461;SDS011;4769;42.660;23.262;2023-01-26T13:17:45;8.80;;;6.40;;
9461;SDS011;4769;42.660;23.262;2023-01-26T13:29:25;10.00;;;7.70;;
9461;SDS011;4769;42.660;23.262;2023-01-26T13:31:56;11.17;;;8.30;;
9461;SDS011;4769;42.660;23.262;2023-01-26T13:34:25;10.67;;;8.23;;
9461;SDS011;4769;42.660;23.262;2023-01-26T13:36:55;10.90;;;7.47;;
9461;SDS011;4769;42.660;23.262;2023-01-26T13:39:30;9.13;;;7.50;;
9461;SDS011;4769;42.660;23.262;2023-01-26T13:42:01;7.67;;;6.97;;
9461;SDS011;4769;42.660;23.262;2023-01-26T13:44:41;11.83;;;7.70;;
9461;SDS011;4769;42.660;23.262;2023-01-26T13:47:13;10.67;;;7.20;;
9461;SDS011;4769;42.660;23.262;2023-01-26T13:49:43;9.70;;;7.13;;
9461;SDS011;4769;42.660;23.262;2023-01-26T13:52:15;12.07;;;8.00;;
9461;SDS011;4769;42.660;23.262;2023-01-26T13:54:44;10.47;;;7.40;;
9461;SDS011;4769;42.660;23.262;2023-01-26T13:57:19;8.23;;;6.53;;
9461;SDS011;4769;42.660;23.262;2023-01-26T13:59:47;8.23;;;6.77;;
9461;SDS011;4769;42.660;23.262;2023-01-26T14:02:22;9.53;;;7.87;;
9461;SDS011;4769;42.660;23.262;2023-01-26T14:04:50;9.67;;;7.27;;
9461;SDS011;4769;42.660;23.262;2023-01-26T14:07:22;7.57;;;6.77;;
9461;SDS011;4769;42.660;23.262;2023-01-26T14:09:52;7.63;;;6.73;;
9461;SDS011;4769;42.660;23.262;2023-01-26T14:12:23;12.00;;;7.90;;
9461;SDS011;4769;42.660;23.262;2023-01-26T14:14:53;11.10;;;9.63;;
9461;SDS011;4769;42.660;23.262;2023-01-26T14:17:24;15.43;;;7.77;;
9461;SDS011;4769;42.660;23.262;2023-01-26T14:19:53;10.07;;;7.33;;
9461;SDS011;4769;42.660;23.262;2023-01-26T14:22:20;10.20;;;6.63;;
9461;SDS011;4769;42.660;23.262;2023-01-26T14:24:47;7.57;;;6.77;;
9461;SDS011;4769;42.660;23.262;2023-01-26T14:27:25;10.73;;;7.73;;
9461;SDS011;4769;42.660;23.262;2023-01-26T14:29:55;17.80;;;7.17;;
9461;SDS011;4769;42.660;23.262;2023-01-26T14:32:23;9.43;;;7.37;;
9461;SDS011;4769;42.660;23.262;2023-01-26T14:34:54;12.33;;;7.33;;
9461;SDS011;4769;42.660;23.262;2023-01-26T14:37:22;8.27;;;7.37;;
9461;SDS011;4769;42.660;23.262;2023-01-26T14:42:50;9.37;;;7.53;;
9461;SDS011;4769;42.660;23.262;2023-01-26T14:45:18;7.97;;;6.33;;
9461;SDS011;4769;42.660;23.262;2023-01-26T14:47:53;10.00;;;7.67;;
9461;SDS011;4769;42.660;23.262;2023-01-26T14:50:22;11.83;;;8.73;;
9461;SDS011;4769;42.660;23.262;2023-01-26T14:52:53;12.87;;;9.47;;
9461;SDS011;4769;42.660;23.262;2023-01-26T14:55:21;12.20;;;8.03;;
9461;SDS011;4769;42.660;23.262;2023-01-26T14:57:53;8.17;;;6.50;;
9461;SDS011;4769;42.660;23.262;2023-01-26T15:00:22;7.87;;;6.13;;
9461;SDS011;4769;42.660;23.262;2023-01-26T15:02:52;10.63;;;7.23;;
9461;SDS011;4769;42.660;23.262;2023-01-26T15:05:21;8.33;;;6.33;;
9461;SDS011;4769;42.660;23.262;2023-01-26T15:07:50;8.27;;;5.33;;
9461;SDS011;4769;42.660;23.262;2023-01-26T15:10:26;9.93;;;4.27;;
9461;SDS011;4769;42.660;23.262;2023-01-26T15:13:01;3.97;;;3.23;;
9461;SDS011;4769;42.660;23.262;2023-01-26T15:15:32;3.93;;;2.93;;
9461;SDS011;4769;42.660;23.262;2023-01-26T15:18:04;5.93;;;3.70;;
9461;SDS011;4769;42.660;23.262;2023-01-26T15:20:42;5.27;;;3.63;;
9461;SDS011;4769;42.660;23.262;2023-01-26T15:23:20;8.43;;;3.93;;
9461;SDS011;4769;42.660;23.262;2023-01-26T15:25:51;3.47;;;3.17;;
9461;SDS011;4769;42.660;23.262;2023-01-26T15:28:21;6.87;;;3.57;;
9461;SDS011;4769;42.660;23.262;2023-01-26T15:30:50;6.47;;;3.80;;
9461;SDS011;4769;42.660;23.262;2023-01-26T15:36:20;5.83;;;5.00;;
9461;SDS011;4769;42.660;23.262;2023-01-26T15:38:49;11.53;;;6.30;;
9461;SDS011;4769;42.660;23.262;2023-01-26T15:41:17;12.80;;;6.60;;
9461;SDS011;4769;42.660;23.262;2023-01-26T15:43:45;11.53;;;5.03;;
9461;SDS011;4769;42.660;23.262;2023-01-26T15:46:12;8.40;;;5.77;;
9461;SDS011;4769;42.660;23.262;2023-01-26T15:48:39;10.23;;;6.47;;